createdAt,value
2022-08-18T00:02:18.987Z,98357.00
2022-08-18T00:05:05.758Z,98353.13
2022-08-18T00:07:52.599Z,98355.47
2022-08-18T00:10:41.348Z,98345.56
2022-08-18T00:13:27.157Z,98345.84
2022-08-18T00:16:12.466Z,98353.75
2022-08-18T00:18:57.645Z,98351.63
2022-08-18T00:21:43.065Z,98353.63
2022-08-18T00:24:28.410Z,98354.41
2022-08-18T00:27:13.858Z,98358.72
2022-08-18T00:30:02.244Z,98354.41
2022-08-18T00:32:54.023Z,98356.09
2022-08-18T00:35:39.887Z,98359.97
2022-08-18T00:38:25.599Z,98356.09
2022-08-18T00:41:11.107Z,98350.84
2022-08-18T00:43:58.523Z,98350.66
2022-08-18T00:46:43.880Z,98359.66
2022-08-18T00:49:29.276Z,98363.97
2022-08-18T00:52:16.761Z,98361.19
2022-08-18T00:55:04.118Z,98359.22
2022-08-18T00:57:53.524Z,98365.56
2022-08-18T01:00:39.237Z,98362.31
2022-08-18T01:03:25.047Z,98361.09
2022-08-18T01:06:36.044Z,98362.31
2022-08-18T01:09:22.662Z,98363.09
2022-08-18T01:12:27.931Z,98369.25
2022-08-18T01:15:27.834Z,98366.47
2022-08-18T01:18:33.526Z,98353.75
2022-08-18T01:21:43.424Z,98358.56
2022-08-18T01:24:52.881Z,98366.91
2022-08-18T01:27:39.095Z,98373.25
2022-08-18T01:30:25.845Z,98369.72
2022-08-18T01:33:12.408Z,98356.56
2022-08-18T01:36:00.756Z,98352.06
2022-08-18T01:38:50.286Z,98353.75
2022-08-18T01:41:35.972Z,98348.97
2022-08-18T01:44:21.196Z,98357.31
2022-08-18T01:47:06.598Z,98356.56
2022-08-18T01:49:53.388Z,98350.66
2022-08-18T01:52:39.920Z,98352.22
2022-08-18T01:55:28.376Z,98360.91
2022-08-18T01:58:14.089Z,98367.38
2022-08-18T02:01:02.011Z,98366.16
2022-08-18T02:03:52.693Z,98356.69
2022-08-18T02:06:39.578Z,98358.69
2022-08-18T02:09:31.750Z,98367.38
2022-08-18T02:12:17.140Z,98367.84
2022-08-18T02:15:02.864Z,98364.75
2022-08-18T02:17:48.929Z,98366.59
2022-08-18T02:20:34.278Z,98363.03
2022-08-18T02:23:19.654Z,98358.25
2022-08-18T02:26:07.907Z,98359.94
2022-08-18T02:28:53.259Z,98360.25
2022-08-18T02:31:38.714Z,98365.06
2022-08-18T02:34:24.211Z,98351.59
2022-08-18T02:37:14.842Z,98357.16
2022-08-18T02:40:00.774Z,98353.91
2022-08-18T02:42:46.804Z,98344.75
2022-08-18T02:45:32.730Z,98339.19
2022-08-18T02:48:24.305Z,98339.66
2022-08-18T02:51:14.743Z,98333.94
2022-08-18T02:54:00.404Z,98325.28
2022-08-18T02:56:45.773Z,98332.41
2022-08-18T02:59:31.735Z,98331.63
2022-08-18T03:02:18.871Z,98326.38
2022-08-18T03:05:05.153Z,98331.47
2022-08-18T03:07:51.169Z,98337.50
2022-08-18T03:10:37.093Z,98338.75
2022-08-18T03:13:22.882Z,98325.91
2022-08-18T03:16:08.366Z,98337.97
2022-08-18T03:18:54.001Z,98335.19
2022-08-18T03:21:39.354Z,98329.63
2022-08-18T03:24:27.611Z,98342.63
2022-08-18T03:27:13.052Z,98337.50
2022-08-18T03:29:58.719Z,98330.25
2022-08-18T03:32:45.761Z,98337.06
2022-08-18T03:35:31.483Z,98334.59
2022-08-18T03:38:16.668Z,98333.34
2022-08-18T03:41:02.332Z,98327.47
2022-08-18T03:43:51.183Z,98326.84
2022-08-18T03:46:37.355Z,98326.84
2022-08-18T03:49:22.833Z,98337.22
2022-08-18T03:52:10.348Z,98328.06
2022-08-18T03:54:55.999Z,98334.44
2022-08-18T03:57:43.016Z,98333.19
2022-08-18T04:00:33.772Z,98337.22
2022-08-18T04:03:19.296Z,98341.97
2022-08-18T04:06:07.760Z,98338.09
2022-08-18T04:08:56.409Z,98340.88
2022-08-18T04:11:43.411Z,98336.56
2022-08-18T04:14:32.702Z,98332.97
2022-08-18T04:17:26.338Z,98327.41
2022-08-18T04:20:13.452Z,98322.97
2022-08-18T04:22:59.036Z,98333.63
2022-08-18T04:25:44.576Z,98333.31
2022-08-18T04:28:30.568Z,98334.09
2022-08-18T04:31:16.131Z,98333.94
2022-08-18T04:34:02.417Z,98335.63
2022-08-18T04:36:48.874Z,98339.66
2022-08-18T04:39:34.377Z,98333.31
2022-08-18T04:42:19.640Z,98347.56
2022-08-18T04:45:06.919Z,98347.09
2022-08-18T04:47:53.454Z,98353.00
2022-08-18T04:50:39.822Z,98346.19
2022-08-18T04:53:43.748Z,98350.97
2022-08-18T04:56:38.629Z,98344.63
2022-08-18T04:59:25.380Z,98355.34
2022-08-18T05:02:14.677Z,98354.53
2022-08-18T05:05:01.663Z,98362.44
2022-08-18T05:07:48.130Z,98354.53
2022-08-18T05:10:33.308Z,98355.34
2022-08-18T05:13:18.687Z,98369.25
2022-08-18T05:16:18.146Z,98358.56
2022-08-18T05:19:07.083Z,98369.84
2022-08-18T05:21:59.725Z,98373.09
2022-08-18T05:24:47.025Z,98364.41
2022-08-18T05:27:34.180Z,98367.97
2022-08-18T05:30:19.794Z,98367.66
2022-08-18T05:33:05.036Z,98373.09
2022-08-18T05:36:02.075Z,98367.03
2022-08-18T05:38:56.569Z,98373.41
2022-08-18T05:41:47.052Z,98375.72
2022-08-18T05:44:36.049Z,98370.75
2022-08-18T05:47:32.366Z,98367.97
2022-08-18T05:50:20.862Z,98369.19
2022-08-18T05:53:13.758Z,98370.75
2022-08-18T05:56:24.120Z,98368.75
2022-08-18T05:59:11.932Z,98368.75
2022-08-18T06:02:07.815Z,98368.75
2022-08-18T06:04:57.166Z,98353.59
2022-08-18T06:07:47.035Z,98363.50
2022-08-18T06:10:32.893Z,98350.34
2022-08-18T06:13:20.576Z,98350.34
2022-08-18T06:16:18.982Z,98341.22
2022-08-18T06:19:42.906Z,98347.44
2022-08-18T06:22:29.849Z,98343.06
2022-08-18T06:25:26.123Z,98340.28
2022-08-18T06:28:17.098Z,98341.09
2022-08-18T06:31:18.539Z,98339.50
2022-08-18T06:34:25.619Z,98340.75
2022-08-18T06:37:30.734Z,98335.19
2022-08-18T06:40:16.514Z,98338.75
2022-08-18T06:43:02.073Z,98322.03
2022-08-18T06:45:52.232Z,98333.94
2022-08-18T06:48:49.062Z,98338.75
2022-08-18T06:51:40.133Z,98341.09
2022-08-18T06:54:29.408Z,98342.63
2022-08-18T06:57:28.049Z,98335.50
2022-08-18T07:00:19.547Z,98339.06
2022-08-18T07:03:14.473Z,98343.41
2022-08-18T07:06:05.526Z,98343.41
2022-08-18T07:08:54.039Z,98350.22
2022-08-18T07:11:43.300Z,98356.56
2022-08-18T07:14:29.088Z,98348.19
2022-08-18T07:17:42.416Z,98352.06
2022-08-18T07:20:30.457Z,98356.44
2022-08-18T07:23:40.002Z,98354.41
2022-08-18T07:26:25.601Z,98359.22
2022-08-18T07:29:15.722Z,98359.22
2022-08-18T07:32:11.406Z,98354.72
2022-08-18T07:35:08.904Z,98346.38
2022-08-18T07:38:00.579Z,98346.38
2022-08-18T07:40:58.937Z,98356.63
2022-08-18T07:43:57.019Z,98360.97
2022-08-18T07:46:59.145Z,98364.53
2022-08-18T07:50:13.882Z,98374.09
2022-08-18T07:53:06.739Z,98359.88
2022-08-18T07:56:02.276Z,98365.75
2022-08-18T07:58:56.787Z,98364.53
2022-08-18T08:01:54.707Z,98367.75
2022-08-18T08:04:46.379Z,98364.22
2022-08-18T08:07:54.151Z,98365.31
2022-08-18T08:11:02.882Z,98363.44
2022-08-18T08:13:56.357Z,98362.19
2022-08-18T08:17:07.680Z,98371.63
2022-08-18T08:20:08.373Z,98368.84
2022-08-18T08:23:04.975Z,98368.53
2022-08-18T08:26:13.208Z,98382.78
2022-08-18T08:29:32.766Z,98393.94
2022-08-18T08:32:27.510Z,98393.16
2022-08-18T08:35:49.257Z,98390.69
2022-08-18T08:38:45.219Z,98381.13
2022-08-18T08:41:37.895Z,98386.22
2022-08-18T08:44:58.086Z,98378.63
2022-08-18T08:48:04.330Z,98378.63
2022-08-18T08:51:01.896Z,98375.84
2022-08-18T08:53:55.768Z,98375.84
2022-08-18T08:56:45.861Z,98373.38
2022-08-18T08:59:31.701Z,98372.16
2022-08-18T09:02:58.995Z,98374.94
2022-08-18T09:05:56.749Z,98367.81
2022-08-18T09:08:48.565Z,98364.25
2022-08-18T09:11:53.894Z,98365.00
2022-08-18T09:15:16.685Z,98359.44
2022-08-18T09:18:13.985Z,98360.69
2022-08-18T09:21:05.462Z,98353.88
2022-08-18T09:24:06.800Z,98353.88
2022-08-18T09:26:53.940Z,98353.88
2022-08-18T09:29:44.163Z,98346.75
2022-08-18T09:32:57.267Z,98346.75
2022-08-18T09:36:13.093Z,98348.31
2022-08-18T09:39:26.610Z,98334.38
2022-08-18T09:42:31.978Z,98333.16
2022-08-18T09:45:34.058Z,98343.53
2022-08-18T09:48:43.406Z,98337.16
2022-08-18T09:51:33.847Z,98330.38
2022-08-18T09:54:31.049Z,98323.53
2022-08-18T09:57:24.488Z,98316.88
2022-08-18T10:00:13.225Z,98321.25
2022-08-18T10:03:03.514Z,98315.66
2022-08-18T10:06:03.245Z,98322.00
2022-08-18T10:09:02.454Z,98329.59
2022-08-18T10:15:44.273Z,98327.56
2022-08-18T10:19:00.708Z,98331.59
2022-08-18T10:22:01.630Z,98341.03
2022-08-18T10:24:56.074Z,98337.97
2022-08-18T10:27:52.924Z,98344.28
2022-08-18T10:30:56.568Z,98339.03
2022-08-18T10:34:19.404Z,98342.59
2022-08-18T10:40:26.629Z,98347.09
2022-08-18T10:43:55.136Z,98337.16
2022-08-18T10:46:46.735Z,98340.75
2022-08-18T10:49:33.270Z,98339.50
2022-08-18T10:52:20.710Z,98346.31
2022-08-18T10:55:16.317Z,98345.50
2022-08-18T10:58:31.397Z,98346.31
2022-08-18T11:01:30.890Z,98342.28
2022-08-18T11:04:33.597Z,98354.19
2022-08-18T11:07:24.951Z,98362.56
2022-08-18T11:10:30.045Z,98370.91
2022-08-18T11:13:34.896Z,98365.34
2022-08-18T11:16:46.036Z,98354.50
2022-08-18T11:19:42.186Z,98352.38
2022-08-18T11:22:34.093Z,98360.72
2022-08-18T11:25:28.091Z,98370.94
2022-08-18T11:28:18.387Z,98366.94
2022-08-18T11:31:06.529Z,98369.13
2022-08-18T11:33:52.805Z,98369.13
2022-08-18T11:36:49.836Z,98374.41
2022-08-18T11:39:43.216Z,98377.84
2022-08-18T11:42:41.792Z,98379.53
2022-08-18T11:45:33.727Z,98382.31
2022-08-18T11:51:34.359Z,98390.38
2022-08-18T11:54:23.468Z,98389.31
2022-08-18T11:57:46.619Z,98397.06
2022-08-18T12:00:42.722Z,98391.78
2022-08-18T12:03:44.927Z,98389.00
2022-08-18T12:06:33.565Z,98390.56
2022-08-18T12:09:45.532Z,98386.53
2022-08-18T12:12:32.761Z,98388.88
2022-08-18T12:15:23.925Z,98384.84
2022-08-18T12:18:10.236Z,98385.94
2022-08-18T12:21:04.361Z,98386.56
2022-08-18T12:23:52.553Z,98392.47
2022-08-18T12:29:44.757Z,98387.66
2022-08-18T12:32:46.769Z,98364.88
2022-08-18T12:35:36.194Z,98361.16
2022-08-18T12:38:23.497Z,98354.38
2022-08-18T12:41:12.157Z,98358.69
2022-08-18T12:43:58.611Z,98350.66
2022-08-18T12:46:44.414Z,98348.53
2022-08-18T12:49:31.013Z,98349.28
2022-08-18T12:52:17.265Z,98355.66
2022-08-18T12:55:05.157Z,98356.88
2022-08-18T12:57:53.800Z,98358.91
2022-08-18T13:00:41.672Z,98352.88
2022-08-18T13:03:28.747Z,98336.59
2022-08-18T13:06:30.614Z,98335.06
2022-08-18T13:09:35.306Z,98331.03
2022-08-18T13:12:29.331Z,98324.69
2022-08-18T13:15:18.866Z,98305.47
2022-08-18T13:18:07.548Z,98300.19
2022-08-18T13:21:07.190Z,98287.03
2022-08-18T13:23:54.288Z,98294.00
2022-08-18T13:26:47.554Z,98264.38
2022-08-18T13:29:34.223Z,98272.59
2022-08-18T13:32:22.104Z,98273.19
2022-08-18T13:35:13.376Z,98271.97
2022-08-18T13:37:59.737Z,98286.84
2022-08-18T13:40:48.774Z,98292.75
2022-08-18T13:43:39.303Z,98300.50
2022-08-18T13:46:30.966Z,98285.28
2022-08-18T13:49:23.533Z,98286.34
2022-08-18T13:52:33.473Z,98276.91
2022-08-18T13:55:21.297Z,98282.50
2022-08-18T13:58:17.701Z,98290.41
2022-08-18T14:01:44.407Z,98300.81
2022-08-18T14:04:28.433Z,98305.28
2022-08-18T14:07:18.685Z,98317.84
2022-08-18T14:10:08.119Z,98310.25
2022-08-18T14:13:01.791Z,98307.59
2022-08-18T14:16:06.324Z,98292.09
2022-08-18T14:19:14.528Z,98288.06
2022-08-18T14:22:26.814Z,98282.31
2022-08-18T14:25:32.144Z,98274.41
2022-08-18T14:28:24.834Z,98284.97
2022-08-18T14:31:12.535Z,98280.47
2022-08-18T14:34:03.082Z,98283.06
2022-08-18T14:36:50.108Z,98285.41
2022-08-18T14:39:38.681Z,98291.13
2022-08-18T14:42:41.274Z,98285.09
2022-08-18T14:45:35.158Z,98285.56
2022-08-18T14:48:23.287Z,98295.81
2022-08-18T14:51:10.127Z,98289.59
2022-08-18T14:53:56.308Z,98292.41
2022-08-18T14:56:41.665Z,98289.16
2022-08-18T14:59:30.860Z,98286.34
2022-08-18T15:02:23.635Z,98290.22
2022-08-18T15:05:19.421Z,98283.38
2022-08-18T15:08:05.711Z,98278.09
2022-08-18T15:10:52.794Z,98278.09
2022-08-18T15:13:45.245Z,98273.47
2022-08-18T15:16:34.998Z,98277.50
2022-08-18T15:20:00.675Z,98277.03
2022-08-18T15:22:48.708Z,98275.81
2022-08-18T15:25:44.801Z,98281.84
2022-08-18T15:28:30.552Z,98283.06
2022-08-18T15:31:17.350Z,98267.88
2022-08-18T15:34:06.453Z,98272.22
2022-08-18T15:37:09.621Z,98269.91
2022-08-18T15:40:21.890Z,98261.03
2022-08-18T15:43:21.414Z,98246.63
2022-08-18T15:46:11.265Z,98241.50
2022-08-18T15:48:59.673Z,98230.03
2022-08-18T15:51:47.817Z,98223.22
2022-08-18T15:54:36.366Z,98224.00
2022-08-18T15:57:23.768Z,98220.44
2022-08-18T16:00:26.826Z,98214.53
2022-08-18T16:03:14.609Z,98222.28
2022-08-18T16:05:59.847Z,98219.16
2022-08-18T16:08:45.237Z,98213.59
2022-08-18T16:11:30.669Z,98208.00
2022-08-18T16:14:16.331Z,98210.78
2022-08-18T16:17:09.109Z,98208.00
2022-08-18T16:19:59.107Z,98210.34
2022-08-18T16:22:46.213Z,98211.75
2022-08-18T16:25:32.538Z,98208.66
2022-08-18T16:28:18.252Z,98203.38
2022-08-18T16:31:04.603Z,98191.72
2022-08-18T16:33:51.003Z,98195.00
2022-08-18T16:36:36.972Z,98185.34
2022-08-18T16:39:23.878Z,98178.69
2022-08-18T16:42:09.003Z,98182.41
2022-08-18T16:44:54.415Z,98176.69
2022-08-18T16:47:41.280Z,98185.50
2022-08-18T16:50:27.416Z,98184.75
2022-08-18T16:53:12.788Z,98188.75
2022-08-18T16:55:58.110Z,98192.03
2022-08-18T16:59:02.480Z,98189.09
2022-08-18T17:02:09.369Z,98183.81
2022-08-18T17:04:55.070Z,98169.41
2022-08-18T17:07:41.296Z,98168.59
2022-08-18T17:10:27.268Z,98167.06
2022-08-18T17:13:12.879Z,98159.94
2022-08-18T17:16:00.202Z,98159.47
2022-08-18T17:18:46.005Z,98159.94
2022-08-18T17:24:31.288Z,98156.66
2022-08-18T17:27:27.309Z,98166.13
2022-08-18T17:30:16.658Z,98169.69
2022-08-18T17:33:17.057Z,98163.63
2022-08-18T17:36:08.632Z,98166.72
2022-08-18T17:39:05.944Z,98171.38
2022-08-18T17:42:14.110Z,98168.59
2022-08-18T17:45:05.049Z,98172.31
2022-08-18T17:48:02.644Z,98157.88
2022-08-18T17:51:17.318Z,98166.25
2022-08-18T17:54:24.136Z,98166.25
2022-08-18T17:57:23.514Z,98165.00
2022-08-18T18:00:17.005Z,98165.78
2022-08-18T18:03:02.604Z,98158.66
2022-08-18T18:05:54.186Z,98159.41
2022-08-18T18:09:09.493Z,98153.66
2022-08-18T18:11:55.139Z,98156.94
2022-08-18T18:14:43.799Z,98159.09
2022-08-18T18:17:37.739Z,98158.91
2022-08-18T18:20:40.558Z,98150.72
2022-08-18T18:23:41.715Z,98154.44
2022-08-18T18:26:43.019Z,98155.19
2022-08-18T18:29:37.691Z,98165.44
2022-08-18T18:32:34.536Z,98167.94
2022-08-18T18:35:27.792Z,98160.03
2022-08-18T18:38:24.793Z,98168.69
2022-08-18T18:41:13.167Z,98171.63
2022-08-18T18:44:13.196Z,98160.47
2022-08-18T18:47:08.944Z,98159.50
2022-08-18T18:50:07.023Z,98159.81
2022-08-18T18:53:18.872Z,98151.44
2022-08-18T18:56:11.491Z,98145.06
2022-08-18T18:59:25.620Z,98148.63
2022-08-18T19:02:33.830Z,98141.78
2022-08-18T19:05:29.555Z,98147.56
2022-08-18T19:08:53.920Z,98159.19
2022-08-18T19:11:53.723Z,98166.03
2022-08-18T19:14:52.078Z,98177.38
2022-08-18T19:17:53.853Z,98191.50
2022-08-18T19:20:43.667Z,98196.03
2022-08-18T19:23:54.282Z,98202.41
2022-08-18T19:26:44.615Z,98195.25
2022-08-18T19:29:35.117Z,98180.53
2022-08-18T19:32:28.781Z,98175.41
2022-08-18T19:35:24.876Z,98173.88
2022-08-18T19:38:34.822Z,98172.59
2022-08-18T19:41:49.766Z,98158.66
2022-08-18T19:45:14.920Z,98141.88
2022-08-18T19:48:20.401Z,98136.78
2022-08-18T19:51:13.389Z,98133.97
2022-08-18T19:54:26.979Z,98129.34
2022-08-18T19:57:23.638Z,98131.84
2022-08-18T20:00:34.082Z,98119.13
2022-08-18T20:03:33.684Z,98111.69
2022-08-18T20:06:46.833Z,98117.28
2022-08-18T20:09:43.969Z,98112.16
2022-08-18T20:12:55.638Z,98111.56
2022-08-18T20:16:10.530Z,98113.38
2022-08-18T20:18:57.390Z,98118.66
2022-08-18T20:21:47.502Z,98118.97
2022-08-18T20:24:39.699Z,98104.72
2022-08-18T20:27:41.531Z,98108.28
2022-08-18T20:30:33.081Z,98118.06
2022-08-18T20:33:25.870Z,98113.72
2022-08-18T20:36:45.263Z,98110.94
2022-08-18T20:39:32.222Z,98105.34
2022-08-18T20:42:24.412Z,98105.34
2022-08-18T20:45:22.590Z,98112.06
2022-08-18T20:48:32.792Z,98112.81
2022-08-18T20:51:27.915Z,98117.81
2022-08-18T20:54:27.186Z,98125.25
2022-08-18T20:57:13.849Z,98133.63
2022-08-18T21:00:22.727Z,98144.47
2022-08-18T21:03:15.407Z,98144.94
2022-08-18T21:06:00.909Z,98143.88
2022-08-18T21:08:52.276Z,98133.47
2022-08-18T21:11:45.361Z,98130.22
2022-08-18T21:14:33.412Z,98137.63
2022-08-18T21:17:19.011Z,98130.84
2022-08-18T21:20:08.269Z,98124.94
2022-08-18T21:23:04.285Z,98120.91
2022-08-18T21:25:54.796Z,98115.31
2022-08-18T21:28:44.443Z,98126.00
2022-08-18T21:31:44.144Z,98128.97
2022-08-18T21:34:44.792Z,98155.19
2022-08-18T21:37:32.833Z,98150.53
2022-08-18T21:40:18.671Z,98144.47
2022-08-18T21:43:06.063Z,98132.25
2022-08-18T21:45:56.185Z,98122.31
2022-08-18T21:48:51.011Z,98127.13
2022-08-18T21:51:46.565Z,98122.00
2022-08-18T21:54:34.339Z,98118.75
2022-08-18T21:57:51.712Z,98118.75
2022-08-18T22:00:39.920Z,98115.97
2022-08-18T22:03:27.251Z,98120.78
2022-08-18T22:06:21.947Z,98119.72
2022-08-18T22:09:29.064Z,98123.25
2022-08-18T22:12:54.976Z,98106.97
2022-08-18T22:15:48.105Z,98112.56
2022-08-18T22:18:39.651Z,98129.81
2022-08-18T22:21:35.775Z,98162.81
2022-08-18T22:24:29.884Z,98171.66
2022-08-18T22:27:21.210Z,98140.97
2022-08-18T22:30:06.990Z,98158.16
2022-08-18T22:32:53.164Z,98159.41
2022-08-18T22:35:40.046Z,98146.25
2022-08-18T22:38:29.223Z,98153.50
2022-08-18T22:41:16.441Z,98153.50
2022-08-18T22:44:05.533Z,98154.31
2022-08-18T22:46:51.264Z,98152.75
2022-08-18T22:49:37.451Z,98148.72
2022-08-18T22:52:40.530Z,98142.34
2022-08-18T22:55:26.033Z,98144.84
2022-08-18T22:58:16.004Z,98140.81
2022-08-18T23:01:09.171Z,98132.91
2022-08-18T23:03:54.311Z,98120.22
2022-08-18T23:06:39.501Z,98133.41
2022-08-18T23:09:28.442Z,98122.69
2022-08-18T23:12:15.039Z,98120.22
2022-08-18T23:15:06.483Z,98117.09
2022-08-18T23:17:52.693Z,98111.53
2022-08-18T23:20:41.054Z,98110.75
2022-08-18T23:23:29.033Z,98112.00
2022-08-18T23:26:14.400Z,98119.59
2022-08-18T23:28:59.849Z,98115.56
2022-08-18T23:31:45.772Z,98107.22
2022-08-18T23:34:31.733Z,98094.94
2022-08-18T23:37:16.927Z,98096.50
2022-08-18T23:40:02.552Z,98092.16
2022-08-18T23:42:51.489Z,98089.38
2022-08-18T23:45:38.814Z,98094.94
2022-08-18T23:48:24.290Z,98101.00
2022-08-18T23:51:09.564Z,98100.22
2022-08-18T23:53:58.862Z,98104.56
2022-08-18T23:56:46.611Z,98110.91
2022-08-18T23:59:32.202Z,98118.53
